sensor_id;sensor_type;location;lat;lon;timestamp;P1;durP1;ratioP1;P2;durP2;ratioP2
52031;SDS011;38044;45.148;39.604;2022-11-15T00:00:48;25.67;;;13.05;;
52031;SDS011;38044;45.148;39.604;2022-11-15T00:03:15;23.52;;;11.85;;
52031;SDS011;38044;45.148;39.604;2022-11-15T00:05:42;28.42;;;13.43;;
52031;SDS011;38044;45.148;39.604;2022-11-15T00:08:08;22.58;;;12.10;;
52031;SDS011;38044;45.148;39.604;2022-11-15T00:10:34;21.38;;;11.35;;
52031;SDS011;38044;45.148;39.604;2022-11-15T00:13:04;20.08;;;11.82;;
52031;SDS011;38044;45.148;39.604;2022-11-15T00:15:34;21.67;;;10.95;;
52031;SDS011;38044;45.148;39.604;2022-11-15T00:18:02;24.52;;;11.52;;
52031;SDS011;38044;45.148;39.604;2022-11-15T00:20:29;20.38;;;10.98;;
52031;SDS011;38044;45.148;39.604;2022-11-15T00:22:55;21.70;;;11.30;;
52031;SDS011;38044;45.148;39.604;2022-11-15T00:25:21;18.40;;;10.88;;
52031;SDS011;38044;45.148;39.604;2022-11-15T00:27:47;19.95;;;11.05;;
52031;SDS011;38044;45.148;39.604;2022-11-15T00:30:12;23.90;;;11.15;;
52031;SDS011;38044;45.148;39.604;2022-11-15T00:32:38;20.48;;;11.50;;
52031;SDS011;38044;45.148;39.604;2022-11-15T00:35:04;22.17;;;11.35;;
52031;SDS011;38044;45.148;39.604;2022-11-15T00:37:30;19.02;;;11.10;;
52031;SDS011;38044;45.148;39.604;2022-11-15T00:39:56;17.27;;;10.27;;
52031;SDS011;38044;45.148;39.604;2022-11-15T00:42:22;19.70;;;10.75;;
52031;SDS011;38044;45.148;39.604;2022-11-15T00:44:48;20.40;;;11.57;;
52031;SDS011;38044;45.148;39.604;2022-11-15T00:47:14;20.85;;;10.52;;
52031;SDS011;38044;45.148;39.604;2022-11-15T00:49:39;22.42;;;11.02;;
52031;SDS011;38044;45.148;39.604;2022-11-15T00:52:06;19.17;;;10.18;;
52031;SDS011;38044;45.148;39.604;2022-11-15T00:54:32;17.08;;;10.98;;
52031;SDS011;38044;45.148;39.604;2022-11-15T00:56:58;16.55;;;10.68;;
52031;SDS011;38044;45.148;39.604;2022-11-15T00:59:24;23.40;;;12.07;;
52031;SDS011;38044;45.148;39.604;2022-11-15T01:01:50;23.23;;;11.90;;
52031;SDS011;38044;45.148;39.604;2022-11-15T01:04:16;23.52;;;11.57;;
52031;SDS011;38044;45.148;39.604;2022-11-15T01:06:41;24.92;;;11.25;;
52031;SDS011;38044;45.148;39.604;2022-11-15T01:09:07;20.85;;;10.85;;
52031;SDS011;38044;45.148;39.604;2022-11-15T01:11:33;21.50;;;11.10;;
52031;SDS011;38044;45.148;39.604;2022-11-15T01:13:59;26.73;;;10.35;;
52031;SDS011;38044;45.148;39.604;2022-11-15T01:16:25;22.27;;;10.98;;
52031;SDS011;38044;45.148;39.604;2022-11-15T01:18:51;24.65;;;11.35;;
52031;SDS011;38044;45.148;39.604;2022-11-15T01:21:17;23.63;;;11.35;;
52031;SDS011;38044;45.148;39.604;2022-11-15T01:23:44;25.13;;;10.93;;
52031;SDS011;38044;45.148;39.604;2022-11-15T01:26:11;21.75;;;11.10;;
52031;SDS011;38044;45.148;39.604;2022-11-15T01:28:39;22.95;;;11.27;;
52031;SDS011;38044;45.148;39.604;2022-11-15T01:31:08;23.83;;;11.25;;
52031;SDS011;38044;45.148;39.604;2022-11-15T01:33:37;26.63;;;11.40;;
52031;SDS011;38044;45.148;39.604;2022-11-15T01:36:04;25.23;;;11.68;;
52031;SDS011;38044;45.148;39.604;2022-11-15T01:38:35;28.42;;;12.57;;
52031;SDS011;38044;45.148;39.604;2022-11-15T01:41:02;22.30;;;12.40;;
52031;SDS011;38044;45.148;39.604;2022-11-15T01:43:29;116.57;;;18.98;;
52031;SDS011;38044;45.148;39.604;2022-11-15T01:46:09;114.50;;;20.77;;
52031;SDS011;38044;45.148;39.604;2022-11-15T01:48:47;22.80;;;11.43;;
52031;SDS011;38044;45.148;39.604;2022-11-15T01:51:16;20.48;;;10.20;;
52031;SDS011;38044;45.148;39.604;2022-11-15T01:53:45;21.23;;;10.88;;
52031;SDS011;38044;45.148;39.604;2022-11-15T01:56:18;22.52;;;11.52;;
52031;SDS011;38044;45.148;39.604;2022-11-15T01:58:48;27.27;;;11.40;;
52031;SDS011;38044;45.148;39.604;2022-11-15T02:01:16;18.85;;;10.85;;
52031;SDS011;38044;45.148;39.604;2022-11-15T02:06:29;18.45;;;10.85;;
52031;SDS011;38044;45.148;39.604;2022-11-15T02:08:56;18.67;;;11.50;;
52031;SDS011;38044;45.148;39.604;2022-11-15T02:11:23;16.77;;;10.38;;
52031;SDS011;38044;45.148;39.604;2022-11-15T02:13:49;20.52;;;11.43;;
52031;SDS011;38044;45.148;39.604;2022-11-15T02:16:27;19.05;;;11.63;;
52031;SDS011;38044;45.148;39.604;2022-11-15T02:22:16;38.80;;;11.88;;
52031;SDS011;38044;45.148;39.604;2022-11-15T02:25:09;25.30;;;12.27;;
52031;SDS011;38044;45.148;39.604;2022-11-15T02:30:52;23.42;;;11.77;;
52031;SDS011;38044;45.148;39.604;2022-11-15T02:33:33;21.63;;;10.85;;
52031;SDS011;38044;45.148;39.604;2022-11-15T02:36:24;24.35;;;12.18;;
52031;SDS011;38044;45.148;39.604;2022-11-15T02:39:07;126.07;;;18.48;;
52031;SDS011;38044;45.148;39.604;2022-11-15T02:41:47;101.85;;;18.58;;
52031;SDS011;38044;45.148;39.604;2022-11-15T02:44:26;303.05;;;25.23;;
52031;SDS011;38044;45.148;39.604;2022-11-15T02:47:00;123.50;;;16.83;;
52031;SDS011;38044;45.148;39.604;2022-11-15T02:50:21;24.10;;;11.98;;
52031;SDS011;38044;45.148;39.604;2022-11-15T02:52:31;60.22;;;11.90;;
52031;SDS011;38044;45.148;39.604;2022-11-15T02:54:57;59.25;;;11.30;;
52031;SDS011;38044;45.148;39.604;2022-11-15T03:00:15;168.38;;;16.83;;
52031;SDS011;38044;45.148;39.604;2022-11-15T03:02:54;106.22;;;14.68;;
52031;SDS011;38044;45.148;39.604;2022-11-15T03:05:25;48.88;;;12.15;;
52031;SDS011;38044;45.148;39.604;2022-11-15T03:10:37;55.00;;;13.35;;
52031;SDS011;38044;45.148;39.604;2022-11-15T03:13:16;39.80;;;13.15;;
52031;SDS011;38044;45.148;39.604;2022-11-15T03:16:04;48.83;;;12.20;;
52031;SDS011;38044;45.148;39.604;2022-11-15T03:18:37;59.55;;;11.82;;
52031;SDS011;38044;45.148;39.604;2022-11-15T03:21:08;53.58;;;12.02;;
52031;SDS011;38044;45.148;39.604;2022-11-15T03:23:37;88.85;;;12.52;;
52031;SDS011;38044;45.148;39.604;2022-11-15T03:26:05;43.42;;;9.55;;
52031;SDS011;38044;45.148;39.604;2022-11-15T03:28:36;52.50;;;10.65;;
52031;SDS011;38044;45.148;39.604;2022-11-15T03:31:22;77.18;;;12.35;;
52031;SDS011;38044;45.148;39.604;2022-11-15T03:34:11;86.03;;;13.13;;
52031;SDS011;38044;45.148;39.604;2022-11-15T03:36:58;125.32;;;14.82;;
52031;SDS011;38044;45.148;39.604;2022-11-15T03:39:24;91.53;;;13.43;;
52031;SDS011;38044;45.148;39.604;2022-11-15T03:47:11;112.72;;;14.07;;
52031;SDS011;38044;45.148;39.604;2022-11-15T03:49:42;114.65;;;14.50;;
52031;SDS011;38044;45.148;39.604;2022-11-15T03:52:11;104.05;;;12.85;;
52031;SDS011;38044;45.148;39.604;2022-11-15T03:54:47;108.07;;;12.70;;
52031;SDS011;38044;45.148;39.604;2022-11-15T03:57:18;99.43;;;13.23;;
52031;SDS011;38044;45.148;39.604;2022-11-15T03:59:44;108.15;;;12.73;;
52031;SDS011;38044;45.148;39.604;2022-11-15T04:02:09;104.88;;;13.68;;
52031;SDS011;38044;45.148;39.604;2022-11-15T04:04:37;81.35;;;13.40;;
52031;SDS011;38044;45.148;39.604;2022-11-15T04:07:02;104.57;;;12.98;;
52031;SDS011;38044;45.148;39.604;2022-11-15T04:09:28;95.03;;;12.93;;
52031;SDS011;38044;45.148;39.604;2022-11-15T04:11:54;66.28;;;12.55;;
52031;SDS011;38044;45.148;39.604;2022-11-15T04:14:20;66.30;;;12.35;;
52031;SDS011;38044;45.148;39.604;2022-11-15T04:16:46;134.48;;;14.13;;
52031;SDS011;38044;45.148;39.604;2022-11-15T04:19:12;121.85;;;14.32;;
52031;SDS011;38044;45.148;39.604;2022-11-15T04:21:56;108.93;;;14.13;;
52031;SDS011;38044;45.148;39.604;2022-11-15T04:24:41;114.80;;;14.25;;
52031;SDS011;38044;45.148;39.604;2022-11-15T04:27:08;71.47;;;12.52;;
52031;SDS011;38044;45.148;39.604;2022-11-15T04:29:38;122.90;;;13.93;;
52031;SDS011;38044;45.148;39.604;2022-11-15T04:32:05;272.15;;;17.92;;
52031;SDS011;38044;45.148;39.604;2022-11-15T04:34:31;219.60;;;15.05;;
52031;SDS011;38044;45.148;39.604;2022-11-15T04:36:58;111.10;;;12.10;;
52031;SDS011;38044;45.148;39.604;2022-11-15T04:39:41;120.30;;;15.32;;
52031;SDS011;38044;45.148;39.604;2022-11-15T04:42:08;85.85;;;12.35;;
52031;SDS011;38044;45.148;39.604;2022-11-15T04:44:34;109.53;;;13.93;;
52031;SDS011;38044;45.148;39.604;2022-11-15T04:47:00;61.22;;;14.35;;
52031;SDS011;38044;45.148;39.604;2022-11-15T04:49:26;70.32;;;16.50;;
52031;SDS011;38044;45.148;39.604;2022-11-15T04:51:52;75.68;;;13.15;;
52031;SDS011;38044;45.148;39.604;2022-11-15T04:54:18;66.10;;;10.68;;
52031;SDS011;38044;45.148;39.604;2022-11-15T04:56:44;69.03;;;10.43;;
52031;SDS011;38044;45.148;39.604;2022-11-15T04:59:10;59.75;;;10.05;;
52031;SDS011;38044;45.148;39.604;2022-11-15T05:01:36;71.05;;;10.25;;
52031;SDS011;38044;45.148;39.604;2022-11-15T05:04:03;81.53;;;10.88;;
52031;SDS011;38044;45.148;39.604;2022-11-15T05:06:44;54.30;;;10.02;;
52031;SDS011;38044;45.148;39.604;2022-11-15T05:09:11;68.55;;;10.68;;
52031;SDS011;38044;45.148;39.604;2022-11-15T05:11:39;62.58;;;10.55;;
52031;SDS011;38044;45.148;39.604;2022-11-15T05:14:05;55.33;;;10.75;;
52031;SDS011;38044;45.148;39.604;2022-11-15T05:16:31;111.22;;;23.23;;
52031;SDS011;38044;45.148;39.604;2022-11-15T05:18:57;116.10;;;33.08;;
52031;SDS011;38044;45.148;39.604;2022-11-15T05:21:22;80.78;;;15.35;;
52031;SDS011;38044;45.148;39.604;2022-11-15T05:23:48;136.77;;;19.77;;
52031;SDS011;38044;45.148;39.604;2022-11-15T05:26:15;115.22;;;18.88;;
52031;SDS011;38044;45.148;39.604;2022-11-15T05:28:43;109.93;;;15.07;;
52031;SDS011;38044;45.148;39.604;2022-11-15T05:31:10;75.90;;;15.68;;
52031;SDS011;38044;45.148;39.604;2022-11-15T05:33:38;59.20;;;11.25;;
52031;SDS011;38044;45.148;39.604;2022-11-15T05:39:03;77.68;;;17.30;;
52031;SDS011;38044;45.148;39.604;2022-11-15T05:41:32;93.47;;;11.98;;
52031;SDS011;38044;45.148;39.604;2022-11-15T05:43:59;83.35;;;11.13;;
52031;SDS011;38044;45.148;39.604;2022-11-15T05:46:26;54.38;;;11.48;;
52031;SDS011;38044;45.148;39.604;2022-11-15T05:48:52;69.38;;;12.82;;
52031;SDS011;38044;45.148;39.604;2022-11-15T05:51:21;83.40;;;11.63;;
52031;SDS011;38044;45.148;39.604;2022-11-15T05:53:48;77.40;;;12.73;;
52031;SDS011;38044;45.148;39.604;2022-11-15T05:56:15;67.95;;;13.23;;
52031;SDS011;38044;45.148;39.604;2022-11-15T05:58:42;85.88;;;12.13;;
52031;SDS011;38044;45.148;39.604;2022-11-15T06:01:08;79.65;;;11.73;;
52031;SDS011;38044;45.148;39.604;2022-11-15T06:03:34;50.83;;;9.73;;
52031;SDS011;38044;45.148;39.604;2022-11-15T06:06:00;43.20;;;9.73;;
52031;SDS011;38044;45.148;39.604;2022-11-15T06:08:26;63.60;;;11.38;;
52031;SDS011;38044;45.148;39.604;2022-11-15T06:10:52;83.35;;;12.00;;
52031;SDS011;38044;45.148;39.604;2022-11-15T06:13:18;46.40;;;8.90;;
52031;SDS011;38044;45.148;39.604;2022-11-15T06:15:44;48.00;;;9.82;;
52031;SDS011;38044;45.148;39.604;2022-11-15T06:18:10;35.65;;;8.40;;
52031;SDS011;38044;45.148;39.604;2022-11-15T06:20:35;39.45;;;9.57;;
52031;SDS011;38044;45.148;39.604;2022-11-15T06:23:03;46.38;;;8.95;;
52031;SDS011;38044;45.148;39.604;2022-11-15T06:25:30;63.67;;;9.88;;
52031;SDS011;38044;45.148;39.604;2022-11-15T06:27:56;50.83;;;9.45;;
52031;SDS011;38044;45.148;39.604;2022-11-15T06:30:24;35.95;;;8.48;;
52031;SDS011;38044;45.148;39.604;2022-11-15T06:32:51;53.00;;;8.80;;
52031;SDS011;38044;45.148;39.604;2022-11-15T06:35:23;38.60;;;8.45;;
52031;SDS011;38044;45.148;39.604;2022-11-15T06:37:49;57.65;;;9.55;;
52031;SDS011;38044;45.148;39.604;2022-11-15T06:40:15;47.30;;;10.57;;
52031;SDS011;38044;45.148;39.604;2022-11-15T06:42:41;59.58;;;10.23;;
52031;SDS011;38044;45.148;39.604;2022-11-15T06:45:07;63.25;;;10.57;;
52031;SDS011;38044;45.148;39.604;2022-11-15T06:47:33;41.63;;;8.75;;
52031;SDS011;38044;45.148;39.604;2022-11-15T06:49:59;37.30;;;9.68;;
52031;SDS011;38044;45.148;39.604;2022-11-15T06:52:24;42.13;;;9.55;;
52031;SDS011;38044;45.148;39.604;2022-11-15T06:54:50;64.75;;;10.73;;
52031;SDS011;38044;45.148;39.604;2022-11-15T06:57:16;41.33;;;10.00;;
52031;SDS011;38044;45.148;39.604;2022-11-15T06:59:42;63.45;;;10.45;;
52031;SDS011;38044;45.148;39.604;2022-11-15T07:02:14;63.00;;;10.35;;
52031;SDS011;38044;45.148;39.604;2022-11-15T07:04:40;55.63;;;11.93;;
52031;SDS011;38044;45.148;39.604;2022-11-15T07:07:06;44.75;;;11.70;;
52031;SDS011;38044;45.148;39.604;2022-11-15T07:09:32;58.00;;;11.77;;
52031;SDS011;38044;45.148;39.604;2022-11-15T07:11:57;51.67;;;12.82;;
52031;SDS011;38044;45.148;39.604;2022-11-15T07:14:23;37.50;;;11.90;;
52031;SDS011;38044;45.148;39.604;2022-11-15T07:16:49;40.92;;;11.80;;
52031;SDS011;38044;45.148;39.604;2022-11-15T07:19:15;41.40;;;11.40;;
52031;SDS011;38044;45.148;39.604;2022-11-15T07:21:41;48.92;;;12.98;;
52031;SDS011;38044;45.148;39.604;2022-11-15T07:24:07;49.85;;;12.82;;
52031;SDS011;38044;45.148;39.604;2022-11-15T07:26:33;50.25;;;12.10;;
52031;SDS011;38044;45.148;39.604;2022-11-15T07:28:58;55.03;;;12.70;;
52031;SDS011;38044;45.148;39.604;2022-11-15T07:31:24;54.67;;;13.60;;
52031;SDS011;38044;45.148;39.604;2022-11-15T07:33:50;58.90;;;13.45;;
52031;SDS011;38044;45.148;39.604;2022-11-15T07:36:16;50.13;;;14.25;;
52031;SDS011;38044;45.148;39.604;2022-11-15T07:38:42;60.38;;;13.82;;
52031;SDS011;38044;45.148;39.604;2022-11-15T07:41:08;29.98;;;11.75;;
52031;SDS011;38044;45.148;39.604;2022-11-15T07:43:34;27.27;;;13.27;;
52031;SDS011;38044;45.148;39.604;2022-11-15T07:46:04;47.90;;;13.60;;
52031;SDS011;38044;45.148;39.604;2022-11-15T07:48:34;48.95;;;14.70;;
52031;SDS011;38044;45.148;39.604;2022-11-15T07:51:01;41.38;;;13.25;;
52031;SDS011;38044;45.148;39.604;2022-11-15T07:53:27;45.05;;;12.90;;
52031;SDS011;38044;45.148;39.604;2022-11-15T07:55:53;40.70;;;13.70;;
52031;SDS011;38044;45.148;39.604;2022-11-15T07:58:19;28.52;;;11.68;;
52031;SDS011;38044;45.148;39.604;2022-11-15T08:00:45;31.40;;;12.75;;
52031;SDS011;38044;45.148;39.604;2022-11-15T08:03:12;40.53;;;12.98;;
52031;SDS011;38044;45.148;39.604;2022-11-15T08:05:40;40.08;;;14.05;;
52031;SDS011;38044;45.148;39.604;2022-11-15T08:08:08;22.75;;;12.90;;
52031;SDS011;38044;45.148;39.604;2022-11-15T08:10:35;30.05;;;12.18;;
52031;SDS011;38044;45.148;39.604;2022-11-15T08:13:03;32.20;;;12.45;;
52031;SDS011;38044;45.148;39.604;2022-11-15T08:15:30;23.92;;;12.18;;
52031;SDS011;38044;45.148;39.604;2022-11-15T08:17:58;23.63;;;12.18;;
52031;SDS011;38044;45.148;39.604;2022-11-15T08:20:26;23.45;;;12.07;;
52031;SDS011;38044;45.148;39.604;2022-11-15T08:22:59;20.60;;;13.02;;
52031;SDS011;38044;45.148;39.604;2022-11-15T08:25:27;21.45;;;12.38;;
52031;SDS011;38044;45.148;39.604;2022-11-15T08:27:57;44.25;;;13.48;;
52031;SDS011;38044;45.148;39.604;2022-11-15T08:30:24;23.15;;;13.27;;
52031;SDS011;38044;45.148;39.604;2022-11-15T08:32:51;22.45;;;11.80;;
52031;SDS011;38044;45.148;39.604;2022-11-15T08:35:18;18.80;;;11.80;;
52031;SDS011;38044;45.148;39.604;2022-11-15T08:37:46;20.27;;;11.77;;
52031;SDS011;38044;45.148;39.604;2022-11-15T08:40:12;17.08;;;11.00;;
52031;SDS011;38044;45.148;39.604;2022-11-15T08:42:39;18.55;;;10.90;;
52031;SDS011;38044;45.148;39.604;2022-11-15T08:45:06;17.48;;;11.15;;
52031;SDS011;38044;45.148;39.604;2022-11-15T08:47:33;18.35;;;10.60;;
52031;SDS011;38044;45.148;39.604;2022-11-15T08:49:59;14.90;;;10.02;;
52031;SDS011;38044;45.148;39.604;2022-11-15T08:52:24;13.55;;;9.07;;
52031;SDS011;38044;45.148;39.604;2022-11-15T08:54:50;15.80;;;9.27;;
52031;SDS011;38044;45.148;39.604;2022-11-15T08:57:16;14.50;;;8.68;;
52031;SDS011;38044;45.148;39.604;2022-11-15T08:59:42;12.90;;;8.05;;
52031;SDS011;38044;45.148;39.604;2022-11-15T09:02:13;16.02;;;10.38;;
52031;SDS011;38044;45.148;39.604;2022-11-15T09:04:40;16.40;;;9.80;;
52031;SDS011;38044;45.148;39.604;2022-11-15T09:07:07;29.35;;;9.80;;
52031;SDS011;38044;45.148;39.604;2022-11-15T09:09:35;10.80;;;7.70;;
52031;SDS011;38044;45.148;39.604;2022-11-15T09:12:00;11.70;;;7.95;;
52031;SDS011;38044;45.148;39.604;2022-11-15T09:14:26;9.48;;;6.60;;
52031;SDS011;38044;45.148;39.604;2022-11-15T09:16:52;10.18;;;7.40;;
52031;SDS011;38044;45.148;39.604;2022-11-15T09:19:18;12.30;;;7.50;;
52031;SDS011;38044;45.148;39.604;2022-11-15T09:21:44;12.90;;;7.95;;
52031;SDS011;38044;45.148;39.604;2022-11-15T09:24:10;10.05;;;6.45;;
52031;SDS011;38044;45.148;39.604;2022-11-15T09:26:35;10.07;;;6.63;;
52031;SDS011;38044;45.148;39.604;2022-11-15T09:29:01;7.93;;;6.68;;
52031;SDS011;38044;45.148;39.604;2022-11-15T09:31:28;9.82;;;6.45;;
52031;SDS011;38044;45.148;39.604;2022-11-15T09:33:54;8.93;;;6.03;;
52031;SDS011;38044;45.148;39.604;2022-11-15T09:36:20;10.02;;;6.32;;
52031;SDS011;38044;45.148;39.604;2022-11-15T09:38:46;8.23;;;5.47;;
52031;SDS011;38044;45.148;39.604;2022-11-15T09:43:55;28.95;;;6.53;;
52031;SDS011;38044;45.148;39.604;2022-11-15T09:49:27;12.50;;;6.07;;
52031;SDS011;38044;45.148;39.604;2022-11-15T09:51:56;12.20;;;5.80;;
52031;SDS011;38044;45.148;39.604;2022-11-15T09:54:26;9.60;;;5.82;;
52031;SDS011;38044;45.148;39.604;2022-11-15T09:57:44;9.48;;;6.70;;
52031;SDS011;38044;45.148;39.604;2022-11-15T09:59:58;10.50;;;7.03;;
52031;SDS011;38044;45.148;39.604;2022-11-15T10:05:22;9.80;;;7.35;;
52031;SDS011;38044;45.148;39.604;2022-11-15T10:07:56;12.50;;;7.95;;
52031;SDS011;38044;45.148;39.604;2022-11-15T10:10:43;14.70;;;8.18;;
52031;SDS011;38044;45.148;39.604;2022-11-15T10:15:53;12.85;;;7.97;;
52031;SDS011;38044;45.148;39.604;2022-11-15T10:18:49;12.05;;;7.93;;
52031;SDS011;38044;45.148;39.604;2022-11-15T10:24:12;13.98;;;8.85;;
52031;SDS011;38044;45.148;39.604;2022-11-15T10:26:47;14.88;;;9.25;;
52031;SDS011;38044;45.148;39.604;2022-11-15T10:29:17;13.43;;;8.98;;
52031;SDS011;38044;45.148;39.604;2022-11-15T10:31:47;18.15;;;8.98;;
52031;SDS011;38044;45.148;39.604;2022-11-15T10:34:15;19.58;;;8.90;;
52031;SDS011;38044;45.148;39.604;2022-11-15T10:37:01;22.38;;;9.10;;
52031;SDS011;38044;45.148;39.604;2022-11-15T10:39:27;13.80;;;8.98;;
52031;SDS011;38044;45.148;39.604;2022-11-15T10:41:53;15.60;;;9.20;;
52031;SDS011;38044;45.148;39.604;2022-11-15T10:49:21;17.48;;;8.55;;
52031;SDS011;38044;45.148;39.604;2022-11-15T10:54:41;18.75;;;8.82;;
52031;SDS011;38044;45.148;39.604;2022-11-15T11:10:56;12.57;;;8.30;;
52031;SDS011;38044;45.148;39.604;2022-11-15T12:27:25;13.80;;;8.88;;
52031;SDS011;38044;45.148;39.604;2022-11-15T12:30:14;13.68;;;8.40;;
52031;SDS011;38044;45.148;39.604;2022-11-15T12:32:52;17.37;;;8.10;;
52031;SDS011;38044;45.148;39.604;2022-11-15T12:35:35;13.25;;;8.40;;
52031;SDS011;38044;45.148;39.604;2022-11-15T12:38:04;12.00;;;9.10;;
52031;SDS011;38044;45.148;39.604;2022-11-15T12:40:35;13.30;;;7.95;;
52031;SDS011;38044;45.148;39.604;2022-11-15T12:43:04;16.48;;;9.95;;
52031;SDS011;38044;45.148;39.604;2022-11-15T12:45:37;13.73;;;7.95;;
52031;SDS011;38044;45.148;39.604;2022-11-15T12:58:58;15.75;;;9.38;;
52031;SDS011;38044;45.148;39.604;2022-11-15T13:04:21;27.23;;;10.70;;
52031;SDS011;38044;45.148;39.604;2022-11-15T13:07:05;15.32;;;8.50;;
52031;SDS011;38044;45.148;39.604;2022-11-15T13:12:07;22.77;;;15.43;;
52031;SDS011;38044;45.148;39.604;2022-11-15T13:17:53;16.90;;;8.07;;
52031;SDS011;38044;45.148;39.604;2022-11-15T13:20:22;12.40;;;8.13;;
52031;SDS011;38044;45.148;39.604;2022-11-15T13:30:52;24.20;;;9.43;;
52031;SDS011;38044;45.148;39.604;2022-11-15T13:33:24;19.85;;;11.63;;
52031;SDS011;38044;45.148;39.604;2022-11-15T13:35:56;14.93;;;10.90;;
52031;SDS011;38044;45.148;39.604;2022-11-15T13:40:49;23.75;;;14.23;;
52031;SDS011;38044;45.148;39.604;2022-11-15T13:48:53;23.85;;;14.18;;
52031;SDS011;38044;45.148;39.604;2022-11-15T13:56:47;24.23;;;13.27;;
52031;SDS011;38044;45.148;39.604;2022-11-15T13:59:33;26.95;;;12.82;;
52031;SDS011;38044;45.148;39.604;2022-11-15T14:02:12;34.08;;;12.13;;
52031;SDS011;38044;45.148;39.604;2022-11-15T14:04:55;25.50;;;13.60;;
52031;SDS011;38044;45.148;39.604;2022-11-15T14:07:24;26.40;;;13.32;;
52031;SDS011;38044;45.148;39.604;2022-11-15T14:09:52;29.52;;;14.93;;
52031;SDS011;38044;45.148;39.604;2022-11-15T14:12:29;43.70;;;17.27;;
52031;SDS011;38044;45.148;39.604;2022-11-15T14:15:00;32.40;;;20.23;;
52031;SDS011;38044;45.148;39.604;2022-11-15T14:17:43;35.65;;;26.15;;
52031;SDS011;38044;45.148;39.604;2022-11-15T14:22:51;42.22;;;26.85;;
52031;SDS011;38044;45.148;39.604;2022-11-15T14:25:25;38.85;;;25.58;;
52031;SDS011;38044;45.148;39.604;2022-11-15T14:30:51;36.60;;;20.55;;
52031;SDS011;38044;45.148;39.604;2022-11-15T14:33:37;32.60;;;19.08;;
52031;SDS011;38044;45.148;39.604;2022-11-15T14:36:14;32.35;;;17.55;;
52031;SDS011;38044;45.148;39.604;2022-11-15T14:38:44;28.23;;;15.95;;
52031;SDS011;38044;45.148;39.604;2022-11-15T14:43:44;58.25;;;30.85;;
52031;SDS011;38044;45.148;39.604;2022-11-15T14:46:10;52.20;;;25.27;;
52031;SDS011;38044;45.148;39.604;2022-11-15T14:48:35;29.25;;;16.83;;
52031;SDS011;38044;45.148;39.604;2022-11-15T14:51:01;30.95;;;17.63;;
52031;SDS011;38044;45.148;39.604;2022-11-15T14:53:27;29.98;;;18.02;;
52031;SDS011;38044;45.148;39.604;2022-11-15T14:55:53;39.50;;;20.08;;
52031;SDS011;38044;45.148;39.604;2022-11-15T14:58:19;33.92;;;17.80;;
52031;SDS011;38044;45.148;39.604;2022-11-15T15:00:45;34.72;;;20.55;;
52031;SDS011;38044;45.148;39.604;2022-11-15T15:03:11;29.30;;;18.20;;
52031;SDS011;38044;45.148;39.604;2022-11-15T15:05:38;31.15;;;19.10;;
52031;SDS011;38044;45.148;39.604;2022-11-15T15:08:06;33.08;;;18.83;;
52031;SDS011;38044;45.148;39.604;2022-11-15T15:10:37;27.75;;;16.73;;
52031;SDS011;38044;45.148;39.604;2022-11-15T15:13:04;32.47;;;19.52;;
52031;SDS011;38044;45.148;39.604;2022-11-15T15:15:32;34.15;;;20.50;;
52031;SDS011;38044;45.148;39.604;2022-11-15T15:18:01;24.88;;;15.52;;
52031;SDS011;38044;45.148;39.604;2022-11-15T15:20:29;20.98;;;14.02;;
52031;SDS011;38044;45.148;39.604;2022-11-15T15:22:55;22.63;;;13.20;;
52031;SDS011;38044;45.148;39.604;2022-11-15T15:25:23;24.50;;;14.00;;
52031;SDS011;38044;45.148;39.604;2022-11-15T15:27:52;22.52;;;15.00;;
52031;SDS011;38044;45.148;39.604;2022-11-15T15:30:19;30.55;;;17.75;;
52031;SDS011;38044;45.148;39.604;2022-11-15T15:32:45;26.63;;;15.75;;
52031;SDS011;38044;45.148;39.604;2022-11-15T15:35:14;27.48;;;15.00;;
52031;SDS011;38044;45.148;39.604;2022-11-15T15:37:41;22.35;;;14.10;;
52031;SDS011;38044;45.148;39.604;2022-11-15T15:40:13;23.38;;;13.65;;
52031;SDS011;38044;45.148;39.604;2022-11-15T15:42:50;23.17;;;12.10;;
52031;SDS011;38044;45.148;39.604;2022-11-15T15:45:16;26.20;;;13.95;;
52031;SDS011;38044;45.148;39.604;2022-11-15T15:47:43;34.28;;;14.38;;
52031;SDS011;38044;45.148;39.604;2022-11-15T15:50:55;33.55;;;12.20;;
52031;SDS011;38044;45.148;39.604;2022-11-15T15:53:00;22.48;;;12.00;;
52031;SDS011;38044;45.148;39.604;2022-11-15T15:55:28;26.02;;;12.20;;
52031;SDS011;38044;45.148;39.604;2022-11-15T15:57:54;26.38;;;12.70;;
52031;SDS011;38044;45.148;39.604;2022-11-15T16:00:21;25.98;;;13.85;;
52031;SDS011;38044;45.148;39.604;2022-11-15T16:02:48;23.65;;;13.90;;
52031;SDS011;38044;45.148;39.604;2022-11-15T16:05:15;23.92;;;12.85;;
52031;SDS011;38044;45.148;39.604;2022-11-15T16:07:42;25.10;;;13.55;;
52031;SDS011;38044;45.148;39.604;2022-11-15T16:12:47;23.13;;;12.73;;
52031;SDS011;38044;45.148;39.604;2022-11-15T16:15:13;21.92;;;13.35;;
52031;SDS011;38044;45.148;39.604;2022-11-15T16:17:41;27.52;;;13.25;;
52031;SDS011;38044;45.148;39.604;2022-11-15T16:20:15;26.90;;;14.35;;
52031;SDS011;38044;45.148;39.604;2022-11-15T16:22:55;29.15;;;14.55;;
52031;SDS011;38044;45.148;39.604;2022-11-15T16:25:21;32.60;;;14.52;;
52031;SDS011;38044;45.148;39.604;2022-11-15T16:27:47;23.10;;;14.68;;
52031;SDS011;38044;45.148;39.604;2022-11-15T16:30:14;31.30;;;16.58;;
52031;SDS011;38044;45.148;39.604;2022-11-15T16:32:41;179.68;;;65.30;;
52031;SDS011;38044;45.148;39.604;2022-11-15T16:35:10;80.32;;;33.22;;
52031;SDS011;38044;45.148;39.604;2022-11-15T16:37:40;42.75;;;22.58;;
52031;SDS011;38044;45.148;39.604;2022-11-15T16:40:25;41.00;;;20.00;;
52031;SDS011;38044;45.148;39.604;2022-11-15T16:42:56;34.85;;;18.50;;
52031;SDS011;38044;45.148;39.604;2022-11-15T16:45:24;30.75;;;17.92;;
52031;SDS011;38044;45.148;39.604;2022-11-15T16:47:53;28.40;;;16.17;;
52031;SDS011;38044;45.148;39.604;2022-11-15T16:52:59;142.65;;;57.28;;
52031;SDS011;38044;45.148;39.604;2022-11-15T16:55:26;101.38;;;42.45;;
52031;SDS011;38044;45.148;39.604;2022-11-15T16:57:53;74.45;;;32.03;;
52031;SDS011;38044;45.148;39.604;2022-11-15T17:00:22;63.65;;;31.08;;
52031;SDS011;38044;45.148;39.604;2022-11-15T17:02:49;48.75;;;23.42;;
52031;SDS011;38044;45.148;39.604;2022-11-15T17:05:16;47.05;;;21.33;;
52031;SDS011;38044;45.148;39.604;2022-11-15T17:07:45;44.30;;;20.10;;
52031;SDS011;38044;45.148;39.604;2022-11-15T17:10:13;55.63;;;24.40;;
52031;SDS011;38044;45.148;39.604;2022-11-15T17:12:39;38.80;;;19.48;;
52031;SDS011;38044;45.148;39.604;2022-11-15T17:15:05;52.47;;;21.45;;
52031;SDS011;38044;45.148;39.604;2022-11-15T17:17:31;28.75;;;17.05;;
52031;SDS011;38044;45.148;39.604;2022-11-15T17:19:57;24.20;;;13.38;;
52031;SDS011;38044;45.148;39.604;2022-11-15T17:22:23;19.33;;;12.70;;
52031;SDS011;38044;45.148;39.604;2022-11-15T17:24:49;18.52;;;12.50;;
52031;SDS011;38044;45.148;39.604;2022-11-15T17:27:15;19.60;;;12.38;;
52031;SDS011;38044;45.148;39.604;2022-11-15T17:29:41;18.77;;;12.75;;